sensor_id;sensor_type;location;lat;lon;timestamp;P1;durP1;ratioP1;P2;durP2;ratioP2
77085;SDS011;66014;53.134;18.006;2023-07-22T00:00:23;3.00;;;1.60;;
77085;SDS011;66014;53.134;18.006;2023-07-22T00:03:09;2.90;;;1.60;;
77085;SDS011;66014;53.134;18.006;2023-07-22T00:05:35;2.70;;;1.80;;
77085;SDS011;66014;53.134;18.006;2023-07-22T00:08:01;3.90;;;1.70;;
77085;SDS011;66014;53.134;18.006;2023-07-22T00:10:27;4.20;;;2.30;;
77085;SDS011;66014;53.134;18.006;2023-07-22T00:12:53;2.30;;;1.60;;
77085;SDS011;66014;53.134;18.006;2023-07-22T00:15:19;4.50;;;2.00;;
77085;SDS011;66014;53.134;18.006;2023-07-22T00:17:46;4.00;;;1.90;;
77085;SDS011;66014;53.134;18.006;2023-07-22T00:20:11;2.80;;;1.80;;
77085;SDS011;66014;53.134;18.006;2023-07-22T00:22:38;4.00;;;2.00;;
77085;SDS011;66014;53.134;18.006;2023-07-22T00:25:09;3.90;;;2.00;;
77085;SDS011;66014;53.134;18.006;2023-07-22T00:27:40;3.40;;;2.30;;
77085;SDS011;66014;53.134;18.006;2023-07-22T00:30:06;3.00;;;2.00;;
77085;SDS011;66014;53.134;18.006;2023-07-22T00:32:33;3.20;;;1.70;;
77085;SDS011;66014;53.134;18.006;2023-07-22T00:34:59;3.90;;;1.80;;
77085;SDS011;66014;53.134;18.006;2023-07-22T00:37:25;4.20;;;2.00;;
77085;SDS011;66014;53.134;18.006;2023-07-22T00:39:53;3.60;;;1.90;;
77085;SDS011;66014;53.134;18.006;2023-07-22T00:42:19;3.80;;;2.10;;
77085;SDS011;66014;53.134;18.006;2023-07-22T00:44:46;3.40;;;2.00;;
77085;SDS011;66014;53.134;18.006;2023-07-22T00:47:12;3.90;;;1.90;;
77085;SDS011;66014;53.134;18.006;2023-07-22T00:49:38;4.10;;;2.10;;
77085;SDS011;66014;53.134;18.006;2023-07-22T00:52:04;4.70;;;2.10;;
77085;SDS011;66014;53.134;18.006;2023-07-22T00:54:30;5.10;;;2.10;;
77085;SDS011;66014;53.134;18.006;2023-07-22T00:56:57;5.40;;;2.10;;
77085;SDS011;66014;53.134;18.006;2023-07-22T00:59:24;4.00;;;1.90;;
77085;SDS011;66014;53.134;18.006;2023-07-22T01:01:50;4.20;;;2.20;;
77085;SDS011;66014;53.134;18.006;2023-07-22T01:04:17;3.00;;;1.90;;
77085;SDS011;66014;53.134;18.006;2023-07-22T01:06:45;4.50;;;2.10;;
77085;SDS011;66014;53.134;18.006;2023-07-22T01:09:12;4.60;;;2.20;;
77085;SDS011;66014;53.134;18.006;2023-07-22T01:11:39;3.20;;;2.00;;
77085;SDS011;66014;53.134;18.006;2023-07-22T01:14:04;3.20;;;1.90;;
77085;SDS011;66014;53.134;18.006;2023-07-22T01:16:30;3.90;;;2.20;;
77085;SDS011;66014;53.134;18.006;2023-07-22T01:18:56;3.80;;;2.00;;
77085;SDS011;66014;53.134;18.006;2023-07-22T01:21:23;5.00;;;2.00;;
77085;SDS011;66014;53.134;18.006;2023-07-22T01:23:50;5.30;;;2.10;;
77085;SDS011;66014;53.134;18.006;2023-07-22T01:26:16;3.80;;;2.00;;
77085;SDS011;66014;53.134;18.006;2023-07-22T01:28:43;3.50;;;1.80;;
77085;SDS011;66014;53.134;18.006;2023-07-22T01:31:09;3.10;;;1.90;;
77085;SDS011;66014;53.134;18.006;2023-07-22T01:33:35;3.60;;;1.70;;
77085;SDS011;66014;53.134;18.006;2023-07-22T01:36:01;3.40;;;2.30;;
77085;SDS011;66014;53.134;18.006;2023-07-22T01:38:28;4.10;;;2.20;;
77085;SDS011;66014;53.134;18.006;2023-07-22T01:40:55;3.10;;;1.90;;
77085;SDS011;66014;53.134;18.006;2023-07-22T01:43:20;3.50;;;2.20;;
77085;SDS011;66014;53.134;18.006;2023-07-22T01:45:47;4.90;;;2.10;;
77085;SDS011;66014;53.134;18.006;2023-07-22T01:48:13;6.10;;;2.10;;
77085;SDS011;66014;53.134;18.006;2023-07-22T01:50:38;5.10;;;2.10;;
77085;SDS011;66014;53.134;18.006;2023-07-22T01:53:04;4.60;;;2.20;;
77085;SDS011;66014;53.134;18.006;2023-07-22T01:55:33;8.00;;;5.00;;
77085;SDS011;66014;53.134;18.006;2023-07-22T01:57:59;5.50;;;3.20;;
77085;SDS011;66014;53.134;18.006;2023-07-22T02:00:25;4.70;;;2.70;;
77085;SDS011;66014;53.134;18.006;2023-07-22T02:02:52;4.80;;;2.50;;
77085;SDS011;66014;53.134;18.006;2023-07-22T02:05:18;5.30;;;2.60;;
77085;SDS011;66014;53.134;18.006;2023-07-22T02:07:43;5.80;;;2.30;;
77085;SDS011;66014;53.134;18.006;2023-07-22T02:10:09;3.50;;;2.30;;
77085;SDS011;66014;53.134;18.006;2023-07-22T02:12:35;5.30;;;2.40;;
77085;SDS011;66014;53.134;18.006;2023-07-22T02:15:02;3.80;;;2.30;;
77085;SDS011;66014;53.134;18.006;2023-07-22T02:17:28;4.70;;;2.00;;
77085;SDS011;66014;53.134;18.006;2023-07-22T02:19:56;3.70;;;2.20;;
77085;SDS011;66014;53.134;18.006;2023-07-22T02:22:22;4.00;;;2.10;;
77085;SDS011;66014;53.134;18.006;2023-07-22T02:24:48;4.00;;;2.10;;
77085;SDS011;66014;53.134;18.006;2023-07-22T02:27:13;3.30;;;1.90;;
77085;SDS011;66014;53.134;18.006;2023-07-22T02:29:39;4.30;;;2.40;;
77085;SDS011;66014;53.134;18.006;2023-07-22T02:32:06;5.60;;;2.60;;
77085;SDS011;66014;53.134;18.006;2023-07-22T02:34:32;4.80;;;2.20;;
77085;SDS011;66014;53.134;18.006;2023-07-22T02:36:58;3.20;;;1.90;;
77085;SDS011;66014;53.134;18.006;2023-07-22T02:39:23;4.90;;;2.00;;
77085;SDS011;66014;53.134;18.006;2023-07-22T02:41:49;3.70;;;2.10;;
77085;SDS011;66014;53.134;18.006;2023-07-22T02:44:15;4.10;;;2.00;;
77085;SDS011;66014;53.134;18.006;2023-07-22T02:46:41;4.50;;;2.40;;
77085;SDS011;66014;53.134;18.006;2023-07-22T02:49:07;4.10;;;2.30;;
77085;SDS011;66014;53.134;18.006;2023-07-22T02:51:33;4.40;;;2.20;;
77085;SDS011;66014;53.134;18.006;2023-07-22T02:53:58;3.30;;;1.90;;
77085;SDS011;66014;53.134;18.006;2023-07-22T02:56:24;4.80;;;2.20;;
77085;SDS011;66014;53.134;18.006;2023-07-22T02:58:50;4.60;;;2.20;;
77085;SDS011;66014;53.134;18.006;2023-07-22T03:01:16;5.00;;;2.40;;
77085;SDS011;66014;53.134;18.006;2023-07-22T03:03:42;3.80;;;2.10;;
77085;SDS011;66014;53.134;18.006;2023-07-22T03:06:08;4.40;;;2.00;;
77085;SDS011;66014;53.134;18.006;2023-07-22T03:08:35;6.40;;;2.60;;
77085;SDS011;66014;53.134;18.006;2023-07-22T03:11:01;5.00;;;2.50;;
77085;SDS011;66014;53.134;18.006;2023-07-22T03:13:29;4.90;;;2.50;;
77085;SDS011;66014;53.134;18.006;2023-07-22T03:15:55;4.70;;;2.30;;
77085;SDS011;66014;53.134;18.006;2023-07-22T03:18:22;3.60;;;2.20;;
77085;SDS011;66014;53.134;18.006;2023-07-22T03:20:48;5.70;;;2.40;;
77085;SDS011;66014;53.134;18.006;2023-07-22T03:23:14;3.90;;;2.30;;
77085;SDS011;66014;53.134;18.006;2023-07-22T03:25:39;4.80;;;2.30;;
77085;SDS011;66014;53.134;18.006;2023-07-22T03:28:06;3.60;;;2.10;;
77085;SDS011;66014;53.134;18.006;2023-07-22T03:30:33;4.80;;;2.20;;
77085;SDS011;66014;53.134;18.006;2023-07-22T03:32:59;3.60;;;2.20;;
77085;SDS011;66014;53.134;18.006;2023-07-22T03:35:26;4.80;;;2.60;;
77085;SDS011;66014;53.134;18.006;2023-07-22T03:37:53;3.50;;;2.20;;
77085;SDS011;66014;53.134;18.006;2023-07-22T03:40:19;4.40;;;2.50;;
77085;SDS011;66014;53.134;18.006;2023-07-22T03:42:46;5.40;;;3.10;;
77085;SDS011;66014;53.134;18.006;2023-07-22T03:45:16;5.10;;;2.30;;
77085;SDS011;66014;53.134;18.006;2023-07-22T03:47:46;4.70;;;2.50;;
77085;SDS011;66014;53.134;18.006;2023-07-22T03:50:17;4.60;;;2.40;;
77085;SDS011;66014;53.134;18.006;2023-07-22T03:52:43;5.60;;;2.70;;
77085;SDS011;66014;53.134;18.006;2023-07-22T03:55:09;4.50;;;2.40;;
77085;SDS011;66014;53.134;18.006;2023-07-22T03:57:34;4.70;;;2.80;;
77085;SDS011;66014;53.134;18.006;2023-07-22T04:00:00;6.30;;;2.90;;
77085;SDS011;66014;53.134;18.006;2023-07-22T04:02:26;5.00;;;2.70;;
77085;SDS011;66014;53.134;18.006;2023-07-22T04:04:53;5.00;;;2.70;;
77085;SDS011;66014;53.134;18.006;2023-07-22T04:07:21;5.70;;;3.10;;
77085;SDS011;66014;53.134;18.006;2023-07-22T04:09:48;3.80;;;2.50;;
77085;SDS011;66014;53.134;18.006;2023-07-22T04:12:14;4.40;;;2.80;;
77085;SDS011;66014;53.134;18.006;2023-07-22T04:14:40;5.90;;;2.80;;
77085;SDS011;66014;53.134;18.006;2023-07-22T04:17:06;3.50;;;2.50;;
77085;SDS011;66014;53.134;18.006;2023-07-22T04:19:32;3.90;;;2.70;;
77085;SDS011;66014;53.134;18.006;2023-07-22T04:21:58;4.50;;;3.10;;
77085;SDS011;66014;53.134;18.006;2023-07-22T04:24:24;4.60;;;2.90;;
77085;SDS011;66014;53.134;18.006;2023-07-22T04:26:50;4.30;;;3.10;;
77085;SDS011;66014;53.134;18.006;2023-07-22T04:29:16;5.70;;;2.90;;
77085;SDS011;66014;53.134;18.006;2023-07-22T04:31:42;5.40;;;3.10;;
77085;SDS011;66014;53.134;18.006;2023-07-22T04:34:08;5.60;;;3.10;;
77085;SDS011;66014;53.134;18.006;2023-07-22T04:36:34;4.30;;;2.80;;
77085;SDS011;66014;53.134;18.006;2023-07-22T04:39:02;4.30;;;2.80;;
77085;SDS011;66014;53.134;18.006;2023-07-22T04:41:30;6.80;;;3.40;;
77085;SDS011;66014;53.134;18.006;2023-07-22T04:43:57;5.40;;;3.60;;
77085;SDS011;66014;53.134;18.006;2023-07-22T04:46:27;5.40;;;3.20;;
77085;SDS011;66014;53.134;18.006;2023-07-22T04:48:54;6.20;;;3.40;;
77085;SDS011;66014;53.134;18.006;2023-07-22T04:51:20;4.40;;;2.70;;
77085;SDS011;66014;53.134;18.006;2023-07-22T04:53:46;5.00;;;3.00;;
77085;SDS011;66014;53.134;18.006;2023-07-22T04:56:12;6.30;;;3.20;;
77085;SDS011;66014;53.134;18.006;2023-07-22T04:58:38;5.70;;;3.10;;
77085;SDS011;66014;53.134;18.006;2023-07-22T05:01:04;5.20;;;3.10;;
77085;SDS011;66014;53.134;18.006;2023-07-22T05:03:30;5.20;;;3.10;;
77085;SDS011;66014;53.134;18.006;2023-07-22T05:05:56;3.60;;;2.50;;
77085;SDS011;66014;53.134;18.006;2023-07-22T05:08:23;5.10;;;3.10;;
77085;SDS011;66014;53.134;18.006;2023-07-22T05:10:49;4.80;;;3.00;;
77085;SDS011;66014;53.134;18.006;2023-07-22T05:13:15;4.90;;;3.10;;
77085;SDS011;66014;53.134;18.006;2023-07-22T05:15:42;5.70;;;3.50;;
77085;SDS011;66014;53.134;18.006;2023-07-22T05:18:08;6.10;;;3.80;;
77085;SDS011;66014;53.134;18.006;2023-07-22T05:20:34;4.10;;;3.00;;
77085;SDS011;66014;53.134;18.006;2023-07-22T05:22:59;4.50;;;2.90;;
77085;SDS011;66014;53.134;18.006;2023-07-22T05:25:25;6.20;;;3.00;;
77085;SDS011;66014;53.134;18.006;2023-07-22T05:27:51;3.90;;;2.70;;
77085;SDS011;66014;53.134;18.006;2023-07-22T05:30:17;3.20;;;2.20;;
77085;SDS011;66014;53.134;18.006;2023-07-22T05:32:42;4.00;;;2.30;;
77085;SDS011;66014;53.134;18.006;2023-07-22T05:35:08;4.90;;;2.60;;
77085;SDS011;66014;53.134;18.006;2023-07-22T05:37:34;4.90;;;2.60;;
77085;SDS011;66014;53.134;18.006;2023-07-22T05:40:00;4.90;;;2.80;;
77085;SDS011;66014;53.134;18.006;2023-07-22T05:42:27;5.30;;;3.00;;
77085;SDS011;66014;53.134;18.006;2023-07-22T05:44:54;5.40;;;2.70;;
77085;SDS011;66014;53.134;18.006;2023-07-22T05:49:49;5.60;;;2.60;;
77085;SDS011;66014;53.134;18.006;2023-07-22T05:52:15;4.60;;;3.00;;
77085;SDS011;66014;53.134;18.006;2023-07-22T05:54:41;6.20;;;2.90;;
77085;SDS011;66014;53.134;18.006;2023-07-22T05:57:07;4.40;;;3.00;;
77085;SDS011;66014;53.134;18.006;2023-07-22T05:59:32;5.30;;;2.70;;
77085;SDS011;66014;53.134;18.006;2023-07-22T06:01:58;5.70;;;2.80;;
77085;SDS011;66014;53.134;18.006;2023-07-22T06:04:24;5.30;;;2.90;;
77085;SDS011;66014;53.134;18.006;2023-07-22T06:06:50;4.30;;;2.80;;
77085;SDS011;66014;53.134;18.006;2023-07-22T06:09:16;4.60;;;3.10;;
77085;SDS011;66014;53.134;18.006;2023-07-22T06:11:42;6.10;;;3.00;;
77085;SDS011;66014;53.134;18.006;2023-07-22T06:14:07;5.10;;;2.50;;
77085;SDS011;66014;53.134;18.006;2023-07-22T06:16:33;4.60;;;2.40;;
77085;SDS011;66014;53.134;18.006;2023-07-22T06:18:59;4.00;;;2.40;;
77085;SDS011;66014;53.134;18.006;2023-07-22T06:21:25;3.70;;;2.30;;
77085;SDS011;66014;53.134;18.006;2023-07-22T06:23:51;5.50;;;2.50;;
77085;SDS011;66014;53.134;18.006;2023-07-22T06:26:17;4.50;;;2.40;;
77085;SDS011;66014;53.134;18.006;2023-07-22T06:28:42;4.10;;;2.20;;
77085;SDS011;66014;53.134;18.006;2023-07-22T06:31:08;4.30;;;2.40;;
77085;SDS011;66014;53.134;18.006;2023-07-22T06:33:34;3.00;;;2.00;;
77085;SDS011;66014;53.134;18.006;2023-07-22T06:36:00;3.10;;;1.70;;
77085;SDS011;66014;53.134;18.006;2023-07-22T06:38:25;3.90;;;1.90;;
77085;SDS011;66014;53.134;18.006;2023-07-22T06:40:54;4.50;;;2.00;;
77085;SDS011;66014;53.134;18.006;2023-07-22T06:43:20;3.90;;;1.80;;
77085;SDS011;66014;53.134;18.006;2023-07-22T06:45:46;3.30;;;1.90;;
77085;SDS011;66014;53.134;18.006;2023-07-22T06:48:12;3.10;;;1.60;;
77085;SDS011;66014;53.134;18.006;2023-07-22T06:50:37;2.50;;;1.60;;
77085;SDS011;66014;53.134;18.006;2023-07-22T06:53:03;3.60;;;1.80;;
77085;SDS011;66014;53.134;18.006;2023-07-22T06:55:29;4.10;;;1.80;;
77085;SDS011;66014;53.134;18.006;2023-07-22T06:57:55;4.30;;;2.00;;
77085;SDS011;66014;53.134;18.006;2023-07-22T07:00:22;3.90;;;1.80;;
77085;SDS011;66014;53.134;18.006;2023-07-22T07:02:49;2.90;;;1.70;;
77085;SDS011;66014;53.134;18.006;2023-07-22T07:05:16;3.60;;;1.30;;
77085;SDS011;66014;53.134;18.006;2023-07-22T07:07:43;2.80;;;1.70;;
77085;SDS011;66014;53.134;18.006;2023-07-22T07:10:09;3.20;;;1.70;;
77085;SDS011;66014;53.134;18.006;2023-07-22T07:12:35;3.70;;;1.70;;
77085;SDS011;66014;53.134;18.006;2023-07-22T07:15:01;3.40;;;1.60;;
77085;SDS011;66014;53.134;18.006;2023-07-22T07:17:28;3.80;;;1.70;;
77085;SDS011;66014;53.134;18.006;2023-07-22T07:19:54;4.30;;;1.70;;
77085;SDS011;66014;53.134;18.006;2023-07-22T07:22:19;3.40;;;1.90;;
77085;SDS011;66014;53.134;18.006;2023-07-22T07:24:45;2.80;;;1.40;;
77085;SDS011;66014;53.134;18.006;2023-07-22T07:27:11;3.40;;;1.60;;
77085;SDS011;66014;53.134;18.006;2023-07-22T07:29:37;3.50;;;1.80;;
77085;SDS011;66014;53.134;18.006;2023-07-22T07:32:03;3.50;;;2.00;;
77085;SDS011;66014;53.134;18.006;2023-07-22T07:34:29;2.20;;;1.50;;
77085;SDS011;66014;53.134;18.006;2023-07-22T07:36:55;3.00;;;1.20;;
77085;SDS011;66014;53.134;18.006;2023-07-22T07:39:21;2.30;;;1.40;;
77085;SDS011;66014;53.134;18.006;2023-07-22T07:41:48;3.70;;;1.60;;
77085;SDS011;66014;53.134;18.006;2023-07-22T07:44:14;3.60;;;1.50;;
77085;SDS011;66014;53.134;18.006;2023-07-22T07:46:40;3.50;;;1.50;;
77085;SDS011;66014;53.134;18.006;2023-07-22T07:49:06;4.20;;;1.40;;
77085;SDS011;66014;53.134;18.006;2023-07-22T07:51:32;2.30;;;1.40;;
77085;SDS011;66014;53.134;18.006;2023-07-22T07:53:58;3.50;;;1.50;;
77085;SDS011;66014;53.134;18.006;2023-07-22T07:56:25;3.60;;;1.30;;
77085;SDS011;66014;53.134;18.006;2023-07-22T07:58:52;3.20;;;1.20;;
77085;SDS011;66014;53.134;18.006;2023-07-22T08:01:20;3.70;;;1.70;;
77085;SDS011;66014;53.134;18.006;2023-07-22T08:03:50;3.70;;;1.20;;
77085;SDS011;66014;53.134;18.006;2023-07-22T08:06:17;2.50;;;1.40;;
77085;SDS011;66014;53.134;18.006;2023-07-22T08:08:44;2.80;;;1.40;;
77085;SDS011;66014;53.134;18.006;2023-07-22T08:11:11;2.60;;;1.40;;
77085;SDS011;66014;53.134;18.006;2023-07-22T08:13:41;2.60;;;1.40;;
77085;SDS011;66014;53.134;18.006;2023-07-22T08:16:10;2.90;;;1.40;;
77085;SDS011;66014;53.134;18.006;2023-07-22T08:18:39;3.10;;;1.50;;
77085;SDS011;66014;53.134;18.006;2023-07-22T08:21:12;2.70;;;1.20;;
77085;SDS011;66014;53.134;18.006;2023-07-22T08:23:42;2.60;;;1.30;;
77085;SDS011;66014;53.134;18.006;2023-07-22T08:26:13;2.30;;;1.10;;
77085;SDS011;66014;53.134;18.006;2023-07-22T08:28:39;2.30;;;1.40;;
77085;SDS011;66014;53.134;18.006;2023-07-22T08:31:05;2.80;;;1.30;;
77085;SDS011;66014;53.134;18.006;2023-07-22T08:33:31;2.50;;;1.20;;
77085;SDS011;66014;53.134;18.006;2023-07-22T08:35:57;2.00;;;1.10;;
77085;SDS011;66014;53.134;18.006;2023-07-22T08:38:23;2.30;;;1.20;;
77085;SDS011;66014;53.134;18.006;2023-07-22T08:40:50;2.50;;;1.20;;
77085;SDS011;66014;53.134;18.006;2023-07-22T08:43:18;2.50;;;1.30;;
77085;SDS011;66014;53.134;18.006;2023-07-22T08:45:46;2.40;;;1.40;;
77085;SDS011;66014;53.134;18.006;2023-07-22T08:48:15;2.40;;;1.60;;
77085;SDS011;66014;53.134;18.006;2023-07-22T08:54:20;3.70;;;1.30;;
77085;SDS011;66014;53.134;18.006;2023-07-22T08:56:48;2.60;;;1.50;;
77085;SDS011;66014;53.134;18.006;2023-07-22T09:02:58;3.70;;;1.80;;
77085;SDS011;66014;53.134;18.006;2023-07-22T09:05:25;3.80;;;2.00;;
77085;SDS011;66014;53.134;18.006;2023-07-22T09:07:52;2.70;;;1.50;;
77085;SDS011;66014;53.134;18.006;2023-07-22T09:10:19;3.10;;;1.80;;
77085;SDS011;66014;53.134;18.006;2023-07-22T09:12:47;3.20;;;1.70;;
77085;SDS011;66014;53.134;18.006;2023-07-22T09:15:13;3.00;;;2.00;;
77085;SDS011;66014;53.134;18.006;2023-07-22T09:17:39;3.20;;;2.00;;
77085;SDS011;66014;53.134;18.006;2023-07-22T09:20:06;3.10;;;2.20;;
77085;SDS011;66014;53.134;18.006;2023-07-22T09:22:33;3.90;;;2.60;;
77085;SDS011;66014;53.134;18.006;2023-07-22T09:25:15;4.30;;;2.70;;
77085;SDS011;66014;53.134;18.006;2023-07-22T09:27:42;4.20;;;2.60;;
77085;SDS011;66014;53.134;18.006;2023-07-22T09:32:47;5.50;;;2.50;;
77085;SDS011;66014;53.134;18.006;2023-07-22T09:35:13;4.10;;;2.90;;
77085;SDS011;66014;53.134;18.006;2023-07-22T09:37:38;4.70;;;3.00;;
77085;SDS011;66014;53.134;18.006;2023-07-22T09:42:44;4.50;;;3.40;;
77085;SDS011;66014;53.134;18.006;2023-07-22T09:45:12;4.60;;;3.20;;
77085;SDS011;66014;53.134;18.006;2023-07-22T09:47:47;5.20;;;3.60;;
77085;SDS011;66014;53.134;18.006;2023-07-22T09:50:16;4.80;;;3.70;;
77085;SDS011;66014;53.134;18.006;2023-07-22T09:52:48;7.20;;;3.60;;
77085;SDS011;66014;53.134;18.006;2023-07-22T09:55:17;5.70;;;4.30;;
77085;SDS011;66014;53.134;18.006;2023-07-22T09:57:46;5.20;;;4.10;;
77085;SDS011;66014;53.134;18.006;2023-07-22T10:00:16;5.00;;;3.80;;
77085;SDS011;66014;53.134;18.006;2023-07-22T10:02:46;6.00;;;4.00;;
77085;SDS011;66014;53.134;18.006;2023-07-22T10:07:43;6.30;;;4.30;;
77085;SDS011;66014;53.134;18.006;2023-07-22T10:10:14;5.30;;;3.60;;
77085;SDS011;66014;53.134;18.006;2023-07-22T10:12:44;5.70;;;3.70;;
77085;SDS011;66014;53.134;18.006;2023-07-22T10:15:14;3.60;;;2.90;;
77085;SDS011;66014;53.134;18.006;2023-07-22T10:17:43;3.90;;;3.40;;
77085;SDS011;66014;53.134;18.006;2023-07-22T10:20:11;3.30;;;2.40;;
77085;SDS011;66014;53.134;18.006;2023-07-22T10:22:44;4.80;;;2.30;;
77085;SDS011;66014;53.134;18.006;2023-07-22T10:25:17;3.10;;;2.10;;
77085;SDS011;66014;53.134;18.006;2023-07-22T10:27:44;3.00;;;2.00;;
77085;SDS011;66014;53.134;18.006;2023-07-22T10:30:12;2.80;;;1.90;;
77085;SDS011;66014;53.134;18.006;2023-07-22T10:32:50;3.40;;;1.80;;
77085;SDS011;66014;53.134;18.006;2023-07-22T10:35:21;2.70;;;1.90;;
77085;SDS011;66014;53.134;18.006;2023-07-22T10:37:49;2.50;;;1.40;;
77085;SDS011;66014;53.134;18.006;2023-07-22T10:40:19;2.20;;;1.40;;
77085;SDS011;66014;53.134;18.006;2023-07-22T10:42:53;2.80;;;1.80;;
77085;SDS011;66014;53.134;18.006;2023-07-22T10:45:26;3.10;;;1.90;;
77085;SDS011;66014;53.134;18.006;2023-07-22T10:48:07;2.80;;;1.50;;
77085;SDS011;66014;53.134;18.006;2023-07-22T10:53:09;2.40;;;1.50;;
77085;SDS011;66014;53.134;18.006;2023-07-22T11:07:03;2.40;;;1.70;;
77085;SDS011;66014;53.134;18.006;2023-07-22T11:17:07;4.10;;;1.60;;
77085;SDS011;66014;53.134;18.006;2023-07-22T11:19:35;3.40;;;1.60;;
77085;SDS011;66014;53.134;18.006;2023-07-22T11:22:01;2.70;;;1.20;;
77085;SDS011;66014;53.134;18.006;2023-07-22T11:24:28;3.30;;;1.30;;
77085;SDS011;66014;53.134;18.006;2023-07-22T11:26:53;2.00;;;1.30;;
77085;SDS011;66014;53.134;18.006;2023-07-22T11:29:20;3.00;;;1.40;;
77085;SDS011;66014;53.134;18.006;2023-07-22T11:31:47;2.70;;;1.40;;
77085;SDS011;66014;53.134;18.006;2023-07-22T11:34:14;4.20;;;1.30;;
77085;SDS011;66014;53.134;18.006;2023-07-22T11:36:43;2.30;;;1.40;;
77085;SDS011;66014;53.134;18.006;2023-07-22T11:39:11;2.30;;;1.10;;
77085;SDS011;66014;53.134;18.006;2023-07-22T11:41:39;2.60;;;1.30;;
77085;SDS011;66014;53.134;18.006;2023-07-22T11:44:10;2.90;;;1.10;;
77085;SDS011;66014;53.134;18.006;2023-07-22T11:46:58;3.10;;;1.10;;
77085;SDS011;66014;53.134;18.006;2023-07-22T11:49:40;2.20;;;1.40;;
77085;SDS011;66014;53.134;18.006;2023-07-22T11:52:10;5.00;;;1.50;;
77085;SDS011;66014;53.134;18.006;2023-07-22T11:54:41;2.50;;;1.60;;
77085;SDS011;66014;53.134;18.006;2023-07-22T11:57:14;5.80;;;2.40;;
77085;SDS011;66014;53.134;18.006;2023-07-22T12:02:36;3.10;;;1.60;;
77085;SDS011;66014;53.134;18.006;2023-07-22T12:05:03;2.90;;;1.60;;
77085;SDS011;66014;53.134;18.006;2023-07-22T12:13:10;3.10;;;1.70;;
77085;SDS011;66014;53.134;18.006;2023-07-22T12:15:36;3.20;;;1.40;;
77085;SDS011;66014;53.134;18.006;2023-07-22T12:18:02;4.40;;;1.90;;
77085;SDS011;66014;53.134;18.006;2023-07-22T12:20:33;4.50;;;2.60;;
77085;SDS011;66014;53.134;18.006;2023-07-22T12:23:01;3.00;;;2.00;;
77085;SDS011;66014;53.134;18.006;2023-07-22T12:25:27;3.10;;;1.80;;
77085;SDS011;66014;53.134;18.006;2023-07-22T12:27:55;4.10;;;2.10;;
77085;SDS011;66014;53.134;18.006;2023-07-22T12:30:24;2.90;;;1.90;;
77085;SDS011;66014;53.134;18.006;2023-07-22T12:32:50;5.30;;;1.70;;
77085;SDS011;66014;53.134;18.006;2023-07-22T12:35:19;2.70;;;1.80;;
77085;SDS011;66014;53.134;18.006;2023-07-22T12:37:45;3.10;;;1.80;;
77085;SDS011;66014;53.134;18.006;2023-07-22T12:40:11;3.90;;;1.50;;
77085;SDS011;66014;53.134;18.006;2023-07-22T12:42:37;2.90;;;1.70;;
77085;SDS011;66014;53.134;18.006;2023-07-22T12:45:04;3.00;;;1.60;;
77085;SDS011;66014;53.134;18.006;2023-07-22T12:47:30;2.80;;;1.60;;
77085;SDS011;66014;53.134;18.006;2023-07-22T12:50:00;2.20;;;1.50;;
77085;SDS011;66014;53.134;18.006;2023-07-22T12:52:27;3.50;;;2.00;;
77085;SDS011;66014;53.134;18.006;2023-07-22T12:54:53;4.30;;;1.90;;
77085;SDS011;66014;53.134;18.006;2023-07-22T12:57:19;2.90;;;1.70;;
77085;SDS011;66014;53.134;18.006;2023-07-22T12:59:45;3.60;;;2.00;;
77085;SDS011;66014;53.134;18.006;2023-07-22T13:02:14;5.90;;;2.90;;
77085;SDS011;66014;53.134;18.006;2023-07-22T13:04:42;3.70;;;2.20;;
77085;SDS011;66014;53.134;18.006;2023-07-22T13:07:09;4.00;;;2.40;;
77085;SDS011;66014;53.134;18.006;2023-07-22T13:09:35;3.70;;;2.00;;
77085;SDS011;66014;53.134;18.006;2023-07-22T13:12:00;11.00;;;1.80;;
77085;SDS011;66014;53.134;18.006;2023-07-22T13:14:26;3.70;;;1.80;;
77085;SDS011;66014;53.134;18.006;2023-07-22T13:16:52;3.10;;;1.80;;
77085;SDS011;66014;53.134;18.006;2023-07-22T13:19:18;3.10;;;1.70;;
77085;SDS011;66014;53.134;18.006;2023-07-22T13:21:44;3.00;;;1.60;;
77085;SDS011;66014;53.134;18.006;2023-07-22T13:24:10;4.50;;;2.10;;
77085;SDS011;66014;53.134;18.006;2023-07-22T13:26:35;5.00;;;2.00;;
77085;SDS011;66014;53.134;18.006;2023-07-22T13:29:01;3.00;;;1.80;;
77085;SDS011;66014;53.134;18.006;2023-07-22T13:31:27;4.40;;;2.00;;
77085;SDS011;66014;53.134;18.006;2023-07-22T13:33:53;3.20;;;1.70;;
77085;SDS011;66014;53.134;18.006;2023-07-22T13:36:21;3.40;;;1.80;;
77085;SDS011;66014;53.134;18.006;2023-07-22T13:38:48;3.30;;;1.80;;
77085;SDS011;66014;53.134;18.006;2023-07-22T13:41:14;3.80;;;2.10;;
77085;SDS011;66014;53.134;18.006;2023-07-22T13:43:40;4.50;;;2.10;;
77085;SDS011;66014;53.134;18.006;2023-07-22T13:46:06;3.40;;;1.70;;
77085;SDS011;66014;53.134;18.006;2023-07-22T13:48:31;3.30;;;2.20;;
77085;SDS011;66014;53.134;18.006;2023-07-22T13:50:57;3.40;;;2.00;;
77085;SDS011;66014;53.134;18.006;2023-07-22T13:53:23;3.20;;;1.80;;
77085;SDS011;66014;53.134;18.006;2023-07-22T13:55:49;4.20;;;2.20;;
77085;SDS011;66014;53.134;18.006;2023-07-22T13:58:15;3.60;;;1.60;;
77085;SDS011;66014;53.134;18.006;2023-07-22T14:00:41;3.80;;;1.60;;
77085;SDS011;66014;53.134;18.006;2023-07-22T14:03:07;4.10;;;1.70;;
77085;SDS011;66014;53.134;18.006;2023-07-22T14:05:35;3.00;;;1.60;;
77085;SDS011;66014;53.134;18.006;2023-07-22T14:08:08;3.70;;;2.00;;
77085;SDS011;66014;53.134;18.006;2023-07-22T14:10:34;4.20;;;2.10;;
77085;SDS011;66014;53.134;18.006;2023-07-22T14:13:00;3.50;;;2.00;;
77085;SDS011;66014;53.134;18.006;2023-07-22T14:15:35;3.10;;;1.80;;
77085;SDS011;66014;53.134;18.006;2023-07-22T14:18:34;3.50;;;2.10;;
77085;SDS011;66014;53.134;18.006;2023-07-22T14:21:00;3.30;;;2.00;;
77085;SDS011;66014;53.134;18.006;2023-07-22T14:23:26;4.40;;;2.00;;
77085;SDS011;66014;53.134;18.006;2023-07-22T14:25:52;3.30;;;1.90;;
77085;SDS011;66014;53.134;18.006;2023-07-22T14:28:18;5.30;;;1.90;;
77085;SDS011;66014;53.134;18.006;2023-07-22T14:30:44;3.90;;;1.80;;
77085;SDS011;66014;53.134;18.006;2023-07-22T14:33:10;4.50;;;1.70;;
77085;SDS011;66014;53.134;18.006;2023-07-22T14:35:36;2.90;;;1.50;;
77085;SDS011;66014;53.134;18.006;2023-07-22T14:38:02;7.10;;;3.30;;
77085;SDS011;66014;53.134;18.006;2023-07-22T14:40:28;3.80;;;2.20;;
77085;SDS011;66014;53.134;18.006;2023-07-22T14:42:57;3.80;;;1.80;;
77085;SDS011;66014;53.134;18.006;2023-07-22T14:45:23;4.30;;;1.80;;
77085;SDS011;66014;53.134;18.006;2023-07-22T14:47:50;3.60;;;1.80;;
77085;SDS011;66014;53.134;18.006;2023-07-22T14:50:15;3.70;;;1.60;;
77085;SDS011;66014;53.134;18.006;2023-07-22T14:52:42;3.10;;;1.70;;
77085;SDS011;66014;53.134;18.006;2023-07-22T14:55:09;2.90;;;1.90;;
77085;SDS011;66014;53.134;18.006;2023-07-22T14:57:37;4.10;;;1.80;;
77085;SDS011;66014;53.134;18.006;2023-07-22T15:00:06;2.80;;;1.80;;
77085;SDS011;66014;53.134;18.006;2023-07-22T15:02:33;3.90;;;1.80;;
77085;SDS011;66014;53.134;18.006;2023-07-22T15:04:59;2.70;;;1.50;;
77085;SDS011;66014;53.134;18.006;2023-07-22T15:07:25;3.40;;;1.80;;
77085;SDS011;66014;53.134;18.006;2023-07-22T15:09:51;2.40;;;1.40;;
77085;SDS011;66014;53.134;18.006;2023-07-22T15:12:19;3.00;;;1.60;;
77085;SDS011;66014;53.134;18.006;2023-07-22T15:14:45;3.70;;;1.60;;
77085;SDS011;66014;53.134;18.006;2023-07-22T15:17:11;2.50;;;1.60;;
77085;SDS011;66014;53.134;18.006;2023-07-22T15:19:37;4.00;;;1.80;;